createdAt,value
2022-09-17T00:02:22.656Z,58.89
2022-09-17T00:07:25.293Z,58.70
2022-09-17T00:12:27.990Z,59.16
2022-09-17T00:17:31.963Z,59.28
2022-09-17T00:22:34.613Z,59.09
2022-09-17T00:27:37.283Z,59.34
2022-09-17T00:32:41.342Z,59.56
2022-09-17T00:37:43.969Z,59.48
2022-09-17T00:42:46.615Z,59.65
2022-09-17T00:47:56.927Z,59.60
2022-09-17T00:53:03.154Z,59.46
2022-09-17T00:58:09.216Z,59.71
2022-09-17T01:03:13.263Z,60.10
2022-09-17T01:08:26.982Z,60.57
2022-09-17T01:13:38.523Z,60.67
2022-09-17T01:18:59.173Z,60.82
2022-09-17T01:24:34.246Z,61.11
2022-09-17T01:29:56.559Z,61.24
2022-09-17T01:35:06.374Z,61.73
2022-09-17T01:40:13.979Z,61.79
2022-09-17T01:45:24.716Z,61.97
2022-09-17T01:50:34.623Z,62.03
2022-09-17T01:55:41.494Z,62.03
2022-09-17T02:00:51.431Z,61.89
2022-09-17T02:06:01.108Z,62.16
2022-09-17T02:11:09.110Z,62.42
2022-09-17T02:16:18.837Z,62.46
2022-09-17T02:21:31.322Z,62.54
2022-09-17T02:26:38.468Z,62.71
2022-09-17T02:31:42.392Z,63.01
2022-09-17T02:36:46.810Z,63.17
2022-09-17T02:42:04.881Z,62.99
2022-09-17T02:47:57.914Z,62.95
2022-09-17T02:53:12.647Z,63.29
2022-09-17T02:58:25.521Z,63.25
2022-09-17T03:03:35.489Z,63.31
2022-09-17T03:08:42.965Z,63.45
2022-09-17T03:13:45.750Z,63.42
2022-09-17T03:18:48.424Z,63.61
2022-09-17T03:23:52.909Z,63.70
2022-09-17T03:28:55.810Z,63.91
2022-09-17T03:33:58.783Z,63.96
2022-09-17T03:39:02.806Z,64.14
2022-09-17T03:44:05.495Z,64.25
2022-09-17T03:49:09.009Z,64.35
2022-09-17T03:54:13.069Z,64.54
2022-09-17T03:59:16.164Z,64.54
2022-09-17T04:04:18.797Z,64.76
2022-09-17T04:09:22.797Z,64.75
2022-09-17T04:14:25.492Z,64.81
2022-09-17T04:19:28.414Z,65.01
2022-09-17T04:24:32.448Z,65.16
2022-09-17T04:29:35.105Z,65.16
2022-09-17T04:34:37.823Z,65.17
2022-09-17T04:39:41.783Z,65.31
2022-09-17T04:44:44.696Z,65.36
2022-09-17T04:49:47.467Z,65.46
2022-09-17T04:54:51.497Z,65.39
2022-09-17T04:59:54.261Z,65.61
2022-09-17T05:04:57.036Z,65.82
2022-09-17T05:10:00.997Z,65.91
2022-09-17T05:15:04.650Z,66.04
2022-09-17T05:20:08.561Z,66.27
2022-09-17T05:25:13.002Z,66.56
2022-09-17T05:30:15.812Z,66.63
2022-09-17T05:35:18.537Z,66.71
2022-09-17T05:40:22.619Z,66.77
2022-09-17T05:45:25.514Z,66.92
2022-09-17T05:50:29.955Z,67.01
2022-09-17T05:55:35.094Z,66.98
2022-09-17T06:00:37.915Z,67.18
2022-09-17T06:05:41.117Z,67.30
2022-09-17T06:10:45.260Z,67.38
2022-09-17T06:15:51.158Z,67.30
2022-09-17T06:20:55.280Z,67.43
2022-09-17T06:26:00.581Z,67.48
2022-09-17T06:31:05.127Z,67.46
2022-09-17T06:36:13.611Z,67.51
2022-09-17T06:41:18.364Z,67.67
2022-09-17T06:46:21.036Z,67.78
2022-09-17T06:51:23.753Z,67.88
2022-09-17T06:56:28.091Z,67.86
2022-09-17T07:01:31.124Z,68.03
2022-09-17T07:06:34.086Z,68.01
2022-09-17T07:11:38.091Z,67.65
2022-09-17T07:16:40.776Z,66.93
2022-09-17T07:21:43.558Z,66.50
2022-09-17T07:26:47.577Z,66.19
2022-09-17T07:31:50.358Z,65.79
2022-09-17T07:36:53.033Z,60.93
2022-09-17T07:41:57.058Z,58.44
2022-09-17T07:46:59.713Z,59.34
2022-09-17T07:52:06.192Z,61.74
2022-09-17T07:57:10.238Z,62.11
2022-09-17T08:02:14.348Z,62.42
2022-09-17T08:07:17.083Z,62.62
2022-09-17T08:12:22.797Z,62.95
2022-09-17T08:17:25.422Z,62.42
2022-09-17T08:22:28.111Z,62.73
2022-09-17T08:27:32.739Z,62.13
2022-09-17T08:32:35.364Z,62.60
2022-09-17T08:37:37.995Z,61.39
2022-09-17T08:42:54.123Z,61.42
2022-09-17T08:48:05.032Z,61.30
2022-09-17T08:53:21.208Z,60.60
2022-09-17T08:58:42.676Z,60.31
2022-09-17T09:04:02.137Z,61.10
2022-09-17T09:09:11.797Z,61.09
2022-09-17T09:14:24.055Z,61.32
2022-09-17T09:19:29.614Z,61.40
2022-09-17T09:24:42.178Z,61.50
2022-09-17T09:30:03.335Z,61.71
2022-09-17T09:35:18.497Z,61.87
2022-09-17T09:40:31.728Z,62.04
2022-09-17T09:45:48.434Z,62.23
2022-09-17T09:51:06.896Z,62.45
2022-09-17T09:56:32.396Z,62.56
2022-09-17T10:01:41.686Z,62.73
2022-09-17T10:06:44.542Z,62.76
2022-09-17T10:12:01.394Z,62.51
2022-09-17T10:17:17.707Z,62.18
2022-09-17T10:22:26.526Z,62.93
2022-09-17T10:27:31.331Z,63.59
2022-09-17T10:32:35.431Z,64.17
2022-09-17T10:37:45.393Z,65.20
2022-09-17T10:42:49.110Z,64.56
2022-09-17T10:47:54.040Z,64.52
2022-09-17T10:52:59.862Z,64.11
2022-09-17T10:58:16.582Z,63.67
2022-09-17T11:03:48.656Z,63.43
2022-09-17T11:09:03.150Z,63.32
2022-09-17T11:14:19.732Z,63.34
2022-09-17T11:19:33.737Z,63.04
2022-09-17T11:24:51.413Z,62.65
2022-09-17T11:30:06.294Z,62.24
2022-09-17T11:35:15.734Z,61.59
2022-09-17T11:40:25.213Z,60.78
2022-09-17T11:45:33.819Z,60.44
2022-09-17T11:50:43.844Z,61.01
2022-09-17T11:56:18.546Z,60.57
2022-09-17T12:01:30.717Z,60.56
2022-09-17T12:06:41.081Z,60.53
2022-09-17T12:11:49.430Z,60.88
2022-09-17T12:16:58.979Z,60.88
2022-09-17T12:22:10.804Z,60.65
2022-09-17T12:27:23.685Z,60.63
2022-09-17T12:32:56.717Z,60.68
2022-09-17T12:38:16.379Z,60.68
2022-09-17T12:43:43.705Z,60.61
2022-09-17T12:49:14.970Z,60.45
2022-09-17T12:54:31.790Z,60.53
2022-09-17T12:59:50.568Z,60.35
2022-09-17T13:05:25.335Z,60.16
2022-09-17T13:10:45.759Z,60.05
2022-09-17T13:15:55.306Z,60.08
2022-09-17T13:21:08.074Z,59.78
2022-09-17T13:26:17.209Z,59.64
2022-09-17T13:31:44.573Z,59.09
2022-09-17T13:36:50.278Z,58.71
2022-09-17T13:42:02.910Z,58.17
2022-09-17T13:47:16.920Z,58.37
2022-09-17T13:52:38.306Z,58.21
2022-09-17T13:57:52.456Z,58.00
2022-09-17T14:02:55.089Z,57.85
2022-09-17T14:08:29.200Z,58.23
2022-09-17T14:13:44.917Z,58.72
2022-09-17T14:18:59.800Z,58.30
2022-09-17T14:24:05.939Z,58.61
2022-09-17T14:29:21.570Z,58.72
2022-09-17T14:34:27.211Z,59.00
2022-09-17T14:39:38.262Z,58.99
2022-09-17T14:44:50.841Z,58.86
2022-09-17T14:49:54.214Z,59.05
2022-09-17T14:55:17.624Z,59.26
2022-09-17T15:00:25.088Z,59.32
2022-09-17T15:05:31.859Z,59.48
2022-09-17T15:10:37.531Z,59.68
2022-09-17T15:15:50.569Z,59.03
2022-09-17T15:20:57.080Z,58.62
2022-09-17T15:26:02.433Z,58.98
2022-09-17T15:31:11.132Z,58.45
2022-09-17T15:36:21.433Z,59.10
2022-09-17T15:41:32.085Z,59.25
2022-09-17T15:46:36.187Z,58.89
2022-09-17T15:51:39.169Z,58.51
2022-09-17T15:56:43.383Z,59.02
2022-09-17T16:01:57.562Z,59.27
2022-09-17T16:07:27.903Z,58.70
2022-09-17T16:12:30.528Z,58.72
2022-09-17T16:17:45.918Z,58.35
2022-09-17T16:22:49.470Z,58.29
2022-09-17T16:27:54.859Z,58.37
2022-09-17T16:33:00.018Z,47.43
2022-09-17T16:38:02.869Z,47.61
2022-09-17T16:43:05.658Z,52.60
2022-09-17T16:48:09.788Z,53.27
2022-09-17T16:53:12.504Z,53.34
2022-09-17T16:58:15.210Z,53.71
2022-09-17T17:03:19.389Z,54.20
2022-09-17T17:08:22.747Z,54.78
2022-09-17T17:13:25.549Z,55.25
2022-09-17T17:18:29.581Z,55.79
2022-09-17T17:23:32.247Z,56.16
2022-09-17T17:28:36.407Z,56.67
2022-09-17T17:33:40.387Z,57.13
2022-09-17T17:38:43.013Z,57.33
2022-09-17T17:43:45.666Z,57.69
2022-09-17T17:48:50.095Z,57.82
2022-09-17T17:53:52.711Z,58.01
2022-09-17T17:58:57.603Z,57.81
2022-09-17T18:04:03.243Z,57.90
2022-09-17T18:09:06.923Z,58.08
2022-09-17T18:14:13.051Z,57.82
2022-09-17T18:19:17.105Z,58.03
2022-09-17T18:24:20.167Z,57.77
2022-09-17T18:29:22.793Z,57.62
2022-09-17T18:34:27.221Z,58.03
2022-09-17T18:39:57.845Z,57.80
2022-09-17T18:44:52.615Z,57.99
2022-09-17T18:49:56.698Z,58.02
2022-09-17T18:55:01.433Z,58.19
2022-09-17T19:00:07.393Z,57.57
2022-09-17T19:05:11.755Z,57.52
2022-09-17T19:10:15.260Z,57.56
2022-09-17T19:15:18.587Z,57.36
2022-09-17T19:20:23.514Z,57.24
2022-09-17T19:25:28.017Z,57.45
2022-09-17T19:30:31.277Z,57.21
2022-09-17T19:35:35.308Z,57.41
2022-09-17T19:40:38.030Z,57.74
2022-09-17T19:45:40.716Z,57.08
2022-09-17T19:50:52.645Z,57.36
2022-09-17T19:55:55.649Z,57.84
2022-09-17T20:00:59.170Z,57.28
2022-09-17T20:06:04.909Z,57.17
2022-09-17T20:11:09.316Z,56.85
2022-09-17T20:16:14.317Z,56.90
2022-09-17T20:21:20.403Z,57.11
2022-09-17T20:26:23.775Z,56.88
2022-09-17T20:31:28.958Z,57.02
2022-09-17T20:36:35.977Z,56.94
2022-09-17T20:41:39.501Z,57.03
2022-09-17T20:46:42.221Z,56.64
2022-09-17T20:51:46.465Z,56.75
2022-09-17T20:56:49.163Z,56.92
2022-09-17T21:01:53.540Z,57.01
2022-09-17T21:06:57.621Z,56.85
2022-09-17T21:12:00.357Z,57.10
2022-09-17T21:17:03.400Z,56.81
2022-09-17T21:22:07.433Z,57.17
2022-09-17T21:27:10.142Z,56.96
2022-09-17T21:32:12.763Z,56.77
2022-09-17T21:37:16.957Z,56.96
2022-09-17T21:42:19.647Z,56.89
2022-09-17T21:47:22.514Z,56.74
2022-09-17T21:52:26.489Z,56.99
2022-09-17T21:57:29.412Z,56.89
2022-09-17T22:02:32.677Z,56.89
2022-09-17T22:07:36.650Z,57.13
2022-09-17T22:12:42.318Z,57.58
2022-09-17T22:17:46.094Z,57.02
2022-09-17T22:22:50.168Z,57.29
2022-09-17T22:28:16.998Z,57.34
2022-09-17T22:33:15.374Z,56.99
2022-09-17T22:38:19.383Z,57.51
2022-09-17T22:43:21.985Z,57.16
2022-09-17T22:48:24.804Z,56.87
2022-09-17T22:53:28.830Z,56.82
2022-09-17T22:58:31.989Z,57.03
2022-09-17T23:03:34.690Z,56.77
2022-09-17T23:08:38.802Z,57.00
2022-09-17T23:13:41.674Z,57.20
2022-09-17T23:18:44.799Z,57.18
2022-09-17T23:23:50.865Z,57.00
2022-09-17T23:28:54.667Z,56.84
2022-09-17T23:33:57.951Z,57.15
2022-09-17T23:39:03.233Z,57.05
2022-09-17T23:44:13.828Z,57.23
2022-09-17T23:49:17.893Z,57.22
2022-09-17T23:54:21.894Z,57.52
2022-09-17T23:59:24.771Z,57.11
